sensor_id;sensor_type;location;lat;lon;timestamp;temperature;humidity
8664;DHT22;4369;47.842;13.096;2024-02-14T00:02:24;2.10;99.90
8664;DHT22;4369;47.842;13.096;2024-02-14T00:04:51;2.10;99.90
8664;DHT22;4369;47.842;13.096;2024-02-14T00:07:19;2.10;99.90
8664;DHT22;4369;47.842;13.096;2024-02-14T00:09:46;2.20;99.90
8664;DHT22;4369;47.842;13.096;2024-02-14T00:12:13;2.10;99.90
8664;DHT22;4369;47.842;13.096;2024-02-14T00:14:40;2.20;99.90
8664;DHT22;4369;47.842;13.096;2024-02-14T00:17:09;2.20;99.90
8664;DHT22;4369;47.842;13.096;2024-02-14T00:19:38;2.10;99.90
8664;DHT22;4369;47.842;13.096;2024-02-14T00:22:05;2.10;99.90
8664;DHT22;4369;47.842;13.096;2024-02-14T00:24:32;2.00;99.90
8664;DHT22;4369;47.842;13.096;2024-02-14T00:27:01;1.90;99.90
8664;DHT22;4369;47.842;13.096;2024-02-14T00:29:29;2.00;99.90
8664;DHT22;4369;47.842;13.096;2024-02-14T00:31:56;2.00;99.90
8664;DHT22;4369;47.842;13.096;2024-02-14T00:34:24;2.00;99.90
8664;DHT22;4369;47.842;13.096;2024-02-14T00:36:51;1.90;99.90
8664;DHT22;4369;47.842;13.096;2024-02-14T00:39:18;1.90;99.90
8664;DHT22;4369;47.842;13.096;2024-02-14T00:41:46;1.80;99.90
8664;DHT22;4369;47.842;13.096;2024-02-14T00:44:13;1.80;99.90
8664;DHT22;4369;47.842;13.096;2024-02-14T00:46:42;1.70;99.90
8664;DHT22;4369;47.842;13.096;2024-02-14T00:49:10;1.80;99.90
8664;DHT22;4369;47.842;13.096;2024-02-14T00:51:38;1.80;99.90
8664;DHT22;4369;47.842;13.096;2024-02-14T00:54:05;1.80;99.90
8664;DHT22;4369;47.842;13.096;2024-02-14T00:56:32;1.80;99.90
8664;DHT22;4369;47.842;13.096;2024-02-14T00:59:00;1.80;99.90
8664;DHT22;4369;47.842;13.096;2024-02-14T01:01:27;1.80;99.90
8664;DHT22;4369;47.842;13.096;2024-02-14T01:03:53;1.80;99.90
8664;DHT22;4369;47.842;13.096;2024-02-14T01:06:20;1.80;99.90
8664;DHT22;4369;47.842;13.096;2024-02-14T01:08:49;1.80;99.90
8664;DHT22;4369;47.842;13.096;2024-02-14T01:11:16;1.70;99.90
8664;DHT22;4369;47.842;13.096;2024-02-14T01:13:43;1.70;99.90
8664;DHT22;4369;47.842;13.096;2024-02-14T01:16:10;1.70;99.90
8664;DHT22;4369;47.842;13.096;2024-02-14T01:18:37;1.70;99.90
8664;DHT22;4369;47.842;13.096;2024-02-14T01:21:04;1.70;99.90
8664;DHT22;4369;47.842;13.096;2024-02-14T01:23:31;1.70;99.90
8664;DHT22;4369;47.842;13.096;2024-02-14T01:25:59;1.80;99.90
8664;DHT22;4369;47.842;13.096;2024-02-14T01:28:27;1.70;99.90
8664;DHT22;4369;47.842;13.096;2024-02-14T01:30:54;1.70;99.90
8664;DHT22;4369;47.842;13.096;2024-02-14T01:33:22;1.60;99.90
8664;DHT22;4369;47.842;13.096;2024-02-14T01:35:49;1.70;99.90
8664;DHT22;4369;47.842;13.096;2024-02-14T01:38:16;1.70;99.90
8664;DHT22;4369;47.842;13.096;2024-02-14T01:40:43;1.70;99.90
8664;DHT22;4369;47.842;13.096;2024-02-14T01:43:13;1.70;99.90
8664;DHT22;4369;47.842;13.096;2024-02-14T01:45:41;1.70;99.90
8664;DHT22;4369;47.842;13.096;2024-02-14T01:48:09;1.80;99.90
8664;DHT22;4369;47.842;13.096;2024-02-14T01:50:36;1.80;99.90
8664;DHT22;4369;47.842;13.096;2024-02-14T01:53:06;1.80;99.90
8664;DHT22;4369;47.842;13.096;2024-02-14T01:55:34;1.80;99.90
8664;DHT22;4369;47.842;13.096;2024-02-14T01:58:01;1.80;99.90
8664;DHT22;4369;47.842;13.096;2024-02-14T02:00:31;1.90;99.90
8664;DHT22;4369;47.842;13.096;2024-02-14T02:02:59;1.80;99.90
8664;DHT22;4369;47.842;13.096;2024-02-14T02:05:26;1.70;99.90
8664;DHT22;4369;47.842;13.096;2024-02-14T02:07:54;1.70;99.90
8664;DHT22;4369;47.842;13.096;2024-02-14T02:10:21;1.80;99.90
8664;DHT22;4369;47.842;13.096;2024-02-14T02:12:51;1.70;99.90
8664;DHT22;4369;47.842;13.096;2024-02-14T02:15:18;1.70;99.90
8664;DHT22;4369;47.842;13.096;2024-02-14T02:17:46;1.80;99.90
8664;DHT22;4369;47.842;13.096;2024-02-14T02:20:18;1.70;99.90
8664;DHT22;4369;47.842;13.096;2024-02-14T02:22:47;1.80;99.90
8664;DHT22;4369;47.842;13.096;2024-02-14T02:25:15;1.80;99.90
8664;DHT22;4369;47.842;13.096;2024-02-14T02:27:42;1.80;99.90
8664;DHT22;4369;47.842;13.096;2024-02-14T02:30:09;1.80;99.90
8664;DHT22;4369;47.842;13.096;2024-02-14T02:32:36;1.80;99.90
8664;DHT22;4369;47.842;13.096;2024-02-14T02:35:04;1.70;99.90
8664;DHT22;4369;47.842;13.096;2024-02-14T02:37:31;1.70;99.90
8664;DHT22;4369;47.842;13.096;2024-02-14T02:39:59;1.80;99.90
8664;DHT22;4369;47.842;13.096;2024-02-14T02:42:26;1.90;99.90
8664;DHT22;4369;47.842;13.096;2024-02-14T02:44:55;1.90;99.90
8664;DHT22;4369;47.842;13.096;2024-02-14T02:47:21;1.90;99.90
8664;DHT22;4369;47.842;13.096;2024-02-14T02:49:48;2.00;99.90
8664;DHT22;4369;47.842;13.096;2024-02-14T02:52:17;2.10;99.90
8664;DHT22;4369;47.842;13.096;2024-02-14T02:54:44;2.10;99.90
8664;DHT22;4369;47.842;13.096;2024-02-14T02:57:14;2.10;99.90
8664;DHT22;4369;47.842;13.096;2024-02-14T02:59:41;2.20;99.90
8664;DHT22;4369;47.842;13.096;2024-02-14T03:02:10;2.20;99.90
8664;DHT22;4369;47.842;13.096;2024-02-14T03:04:37;2.30;99.90
8664;DHT22;4369;47.842;13.096;2024-02-14T03:07:05;2.30;99.90
8664;DHT22;4369;47.842;13.096;2024-02-14T03:09:33;2.30;99.90
8664;DHT22;4369;47.842;13.096;2024-02-14T03:12:01;2.40;99.90
8664;DHT22;4369;47.842;13.096;2024-02-14T03:14:30;2.40;99.90
8664;DHT22;4369;47.842;13.096;2024-02-14T03:16:59;2.40;99.90
8664;DHT22;4369;47.842;13.096;2024-02-14T03:19:27;2.40;99.90
8664;DHT22;4369;47.842;13.096;2024-02-14T03:21:56;2.40;99.90
8664;DHT22;4369;47.842;13.096;2024-02-14T03:24:23;2.50;99.90
8664;DHT22;4369;47.842;13.096;2024-02-14T03:26:51;2.60;99.90
8664;DHT22;4369;47.842;13.096;2024-02-14T03:29:19;2.60;99.90
8664;DHT22;4369;47.842;13.096;2024-02-14T03:31:47;2.60;99.90
8664;DHT22;4369;47.842;13.096;2024-02-14T03:34:15;2.70;99.90
8664;DHT22;4369;47.842;13.096;2024-02-14T03:36:41;2.70;99.90
8664;DHT22;4369;47.842;13.096;2024-02-14T03:39:09;2.70;99.90
8664;DHT22;4369;47.842;13.096;2024-02-14T03:41:37;2.80;99.90
8664;DHT22;4369;47.842;13.096;2024-02-14T03:44:04;2.70;99.90
8664;DHT22;4369;47.842;13.096;2024-02-14T03:46:34;2.80;99.90
8664;DHT22;4369;47.842;13.096;2024-02-14T03:49:03;2.80;99.90
8664;DHT22;4369;47.842;13.096;2024-02-14T03:51:30;2.80;99.90
8664;DHT22;4369;47.842;13.096;2024-02-14T03:53:57;2.80;99.90
8664;DHT22;4369;47.842;13.096;2024-02-14T03:56:24;2.80;99.90
8664;DHT22;4369;47.842;13.096;2024-02-14T03:58:51;2.80;99.90
8664;DHT22;4369;47.842;13.096;2024-02-14T04:01:18;2.80;99.90
8664;DHT22;4369;47.842;13.096;2024-02-14T04:03:46;2.90;99.90
8664;DHT22;4369;47.842;13.096;2024-02-14T04:06:16;3.00;99.90
8664;DHT22;4369;47.842;13.096;2024-02-14T04:08:43;3.00;99.90
8664;DHT22;4369;47.842;13.096;2024-02-14T04:11:10;3.00;99.90
8664;DHT22;4369;47.842;13.096;2024-02-14T04:13:39;3.10;99.90
8664;DHT22;4369;47.842;13.096;2024-02-14T04:16:06;3.10;99.90
8664;DHT22;4369;47.842;13.096;2024-02-14T04:18:34;3.20;99.90
8664;DHT22;4369;47.842;13.096;2024-02-14T04:21:01;3.20;99.90
8664;DHT22;4369;47.842;13.096;2024-02-14T04:23:31;3.20;99.90
8664;DHT22;4369;47.842;13.096;2024-02-14T04:25:58;3.30;99.90
8664;DHT22;4369;47.842;13.096;2024-02-14T04:28:25;3.30;99.90
8664;DHT22;4369;47.842;13.096;2024-02-14T04:30:51;3.30;99.90
8664;DHT22;4369;47.842;13.096;2024-02-14T04:33:19;3.20;99.90
8664;DHT22;4369;47.842;13.096;2024-02-14T04:35:47;3.20;99.90
8664;DHT22;4369;47.842;13.096;2024-02-14T04:38:14;3.20;99.90
8664;DHT22;4369;47.842;13.096;2024-02-14T04:40:43;3.20;99.90
8664;DHT22;4369;47.842;13.096;2024-02-14T04:43:10;3.20;99.90
8664;DHT22;4369;47.842;13.096;2024-02-14T04:45:37;3.10;99.90
8664;DHT22;4369;47.842;13.096;2024-02-14T04:48:05;3.20;99.90
8664;DHT22;4369;47.842;13.096;2024-02-14T04:50:33;3.20;99.90
8664;DHT22;4369;47.842;13.096;2024-02-14T04:53:00;3.20;99.90
8664;DHT22;4369;47.842;13.096;2024-02-14T04:55:27;3.30;99.90
8664;DHT22;4369;47.842;13.096;2024-02-14T04:57:56;3.30;99.90
8664;DHT22;4369;47.842;13.096;2024-02-14T05:00:22;3.40;99.90
8664;DHT22;4369;47.842;13.096;2024-02-14T05:02:49;3.50;99.90
8664;DHT22;4369;47.842;13.096;2024-02-14T05:05:16;3.40;99.90
8664;DHT22;4369;47.842;13.096;2024-02-14T05:07:46;3.30;99.90
8664;DHT22;4369;47.842;13.096;2024-02-14T05:10:13;3.40;99.90
8664;DHT22;4369;47.842;13.096;2024-02-14T05:12:40;3.20;99.90
8664;DHT22;4369;47.842;13.096;2024-02-14T05:15:09;3.20;99.90
8664;DHT22;4369;47.842;13.096;2024-02-14T05:17:37;3.20;99.90
8664;DHT22;4369;47.842;13.096;2024-02-14T05:20:05;3.10;99.90
8664;DHT22;4369;47.842;13.096;2024-02-14T05:22:35;3.10;99.90
8664;DHT22;4369;47.842;13.096;2024-02-14T05:25:03;3.00;99.90
8664;DHT22;4369;47.842;13.096;2024-02-14T05:27:30;2.90;99.90
8664;DHT22;4369;47.842;13.096;2024-02-14T05:29:57;2.90;99.90
8664;DHT22;4369;47.842;13.096;2024-02-14T05:32:25;2.80;99.90
8664;DHT22;4369;47.842;13.096;2024-02-14T05:34:52;2.70;99.90
8664;DHT22;4369;47.842;13.096;2024-02-14T05:37:20;2.70;99.90
8664;DHT22;4369;47.842;13.096;2024-02-14T05:39:47;2.60;99.90
8664;DHT22;4369;47.842;13.096;2024-02-14T05:42:14;2.60;99.90
8664;DHT22;4369;47.842;13.096;2024-02-14T05:44:41;2.60;99.90
8664;DHT22;4369;47.842;13.096;2024-02-14T05:47:09;2.50;99.90
8664;DHT22;4369;47.842;13.096;2024-02-14T05:49:39;2.50;99.90
8664;DHT22;4369;47.842;13.096;2024-02-14T05:52:06;2.50;99.90
8664;DHT22;4369;47.842;13.096;2024-02-14T05:54:33;2.40;99.90
8664;DHT22;4369;47.842;13.096;2024-02-14T05:57:00;2.40;99.90
8664;DHT22;4369;47.842;13.096;2024-02-14T05:59:27;2.40;99.90
8664;DHT22;4369;47.842;13.096;2024-02-14T06:01:55;2.30;99.90
8664;DHT22;4369;47.842;13.096;2024-02-14T06:04:21;2.30;99.90
8664;DHT22;4369;47.842;13.096;2024-02-14T06:06:50;2.30;99.90
8664;DHT22;4369;47.842;13.096;2024-02-14T06:09:17;2.30;99.90
8664;DHT22;4369;47.842;13.096;2024-02-14T06:11:44;2.30;99.90
8664;DHT22;4369;47.842;13.096;2024-02-14T06:14:11;2.20;99.90
8664;DHT22;4369;47.842;13.096;2024-02-14T06:16:38;2.10;99.90
8664;DHT22;4369;47.842;13.096;2024-02-14T06:19:05;2.10;99.90
8664;DHT22;4369;47.842;13.096;2024-02-14T06:21:32;2.00;99.90
8664;DHT22;4369;47.842;13.096;2024-02-14T06:24:01;2.10;99.90
8664;DHT22;4369;47.842;13.096;2024-02-14T06:26:30;2.10;99.90
8664;DHT22;4369;47.842;13.096;2024-02-14T06:28:57;2.10;99.90
8664;DHT22;4369;47.842;13.096;2024-02-14T06:31:24;2.00;99.90
8664;DHT22;4369;47.842;13.096;2024-02-14T06:33:51;2.00;99.90
8664;DHT22;4369;47.842;13.096;2024-02-14T06:36:18;2.00;99.90
8664;DHT22;4369;47.842;13.096;2024-02-14T06:38:45;1.90;99.90
8664;DHT22;4369;47.842;13.096;2024-02-14T06:41:13;1.90;99.90
8664;DHT22;4369;47.842;13.096;2024-02-14T06:43:40;1.90;99.90
8664;DHT22;4369;47.842;13.096;2024-02-14T06:46:07;1.90;99.90
8664;DHT22;4369;47.842;13.096;2024-02-14T06:48:34;2.00;99.90
8664;DHT22;4369;47.842;13.096;2024-02-14T06:51:01;2.00;99.90
8664;DHT22;4369;47.842;13.096;2024-02-14T06:53:28;2.00;99.90
8664;DHT22;4369;47.842;13.096;2024-02-14T06:55:56;2.00;99.90
8664;DHT22;4369;47.842;13.096;2024-02-14T06:58:24;2.00;99.90
8664;DHT22;4369;47.842;13.096;2024-02-14T07:00:50;2.10;99.90
8664;DHT22;4369;47.842;13.096;2024-02-14T07:03:18;2.10;99.90
8664;DHT22;4369;47.842;13.096;2024-02-14T07:05:45;2.10;99.90
8664;DHT22;4369;47.842;13.096;2024-02-14T07:08:12;2.10;99.90
8664;DHT22;4369;47.842;13.096;2024-02-14T07:10:40;2.10;99.90
8664;DHT22;4369;47.842;13.096;2024-02-14T07:13:07;2.10;99.90
8664;DHT22;4369;47.842;13.096;2024-02-14T07:15:34;2.10;99.90
8664;DHT22;4369;47.842;13.096;2024-02-14T07:18:01;2.10;99.90
8664;DHT22;4369;47.842;13.096;2024-02-14T07:20:29;2.20;99.90
8664;DHT22;4369;47.842;13.096;2024-02-14T07:22:56;2.20;99.90
8664;DHT22;4369;47.842;13.096;2024-02-14T07:25:23;2.20;99.90
8664;DHT22;4369;47.842;13.096;2024-02-14T07:27:50;2.20;99.90
8664;DHT22;4369;47.842;13.096;2024-02-14T07:30:17;2.20;99.90
8664;DHT22;4369;47.842;13.096;2024-02-14T07:32:45;2.30;99.90
8664;DHT22;4369;47.842;13.096;2024-02-14T07:35:12;2.40;99.90
8664;DHT22;4369;47.842;13.096;2024-02-14T07:37:39;2.60;99.90
8664;DHT22;4369;47.842;13.096;2024-02-14T07:40:08;2.70;99.90
8664;DHT22;4369;47.842;13.096;2024-02-14T07:42:35;2.90;99.90
8664;DHT22;4369;47.842;13.096;2024-02-14T07:45:03;3.10;99.90
8664;DHT22;4369;47.842;13.096;2024-02-14T07:47:30;3.30;99.90
8664;DHT22;4369;47.842;13.096;2024-02-14T07:49:58;3.40;99.90
8664;DHT22;4369;47.842;13.096;2024-02-14T07:52:25;3.60;99.90
8664;DHT22;4369;47.842;13.096;2024-02-14T07:54:52;3.70;99.90
8664;DHT22;4369;47.842;13.096;2024-02-14T07:57:21;3.90;99.90
8664;DHT22;4369;47.842;13.096;2024-02-14T07:59:49;3.90;99.90
8664;DHT22;4369;47.842;13.096;2024-02-14T08:02:17;4.00;99.90
8664;DHT22;4369;47.842;13.096;2024-02-14T08:04:44;4.20;99.90
8664;DHT22;4369;47.842;13.096;2024-02-14T08:07:12;4.30;99.90
8664;DHT22;4369;47.842;13.096;2024-02-14T08:09:39;4.40;99.90
8664;DHT22;4369;47.842;13.096;2024-02-14T08:12:06;4.60;99.90
8664;DHT22;4369;47.842;13.096;2024-02-14T08:14:33;4.60;99.90
8664;DHT22;4369;47.842;13.096;2024-02-14T08:17:00;4.70;99.90
8664;DHT22;4369;47.842;13.096;2024-02-14T08:19:27;4.80;99.90
8664;DHT22;4369;47.842;13.096;2024-02-14T08:21:54;4.80;99.90
8664;DHT22;4369;47.842;13.096;2024-02-14T08:24:26;4.80;99.90
8664;DHT22;4369;47.842;13.096;2024-02-14T08:26:53;4.90;99.90
8664;DHT22;4369;47.842;13.096;2024-02-14T08:29:20;5.00;99.90
8664;DHT22;4369;47.842;13.096;2024-02-14T08:31:47;5.10;99.90
8664;DHT22;4369;47.842;13.096;2024-02-14T08:34:15;5.20;92.50
8664;DHT22;4369;47.842;13.096;2024-02-14T08:36:42;5.40;69.80
8664;DHT22;4369;47.842;13.096;2024-02-14T08:39:10;5.50;55.40
8664;DHT22;4369;47.842;13.096;2024-02-14T08:41:38;5.50;45.70
8664;DHT22;4369;47.842;13.096;2024-02-14T08:44:08;5.60;37.60
8664;DHT22;4369;47.842;13.096;2024-02-14T08:46:36;5.60;36.10
8664;DHT22;4369;47.842;13.096;2024-02-14T08:49:03;5.70;29.50
8664;DHT22;4369;47.842;13.096;2024-02-14T08:51:34;5.70;23.90
8664;DHT22;4369;47.842;13.096;2024-02-14T08:54:01;5.80;25.10
8664;DHT22;4369;47.842;13.096;2024-02-14T08:56:30;5.90;21.40
8664;DHT22;4369;47.842;13.096;2024-02-14T08:59:00;6.00;16.80
8664;DHT22;4369;47.842;13.096;2024-02-14T09:01:28;6.10;17.50
8664;DHT22;4369;47.842;13.096;2024-02-14T09:03:55;6.20;3.40
8664;DHT22;4369;47.842;13.096;2024-02-14T09:06:22;6.30;1.00
8664;DHT22;4369;47.842;13.096;2024-02-14T09:08:49;6.40;1.00
8664;DHT22;4369;47.842;13.096;2024-02-14T09:11:17;6.40;1.00
8664;DHT22;4369;47.842;13.096;2024-02-14T09:13:44;6.50;1.00
8664;DHT22;4369;47.842;13.096;2024-02-14T09:16:14;6.60;1.00
8664;DHT22;4369;47.842;13.096;2024-02-14T09:18:42;6.60;1.00
8664;DHT22;4369;47.842;13.096;2024-02-14T09:21:11;6.70;1.00
8664;DHT22;4369;47.842;13.096;2024-02-14T09:23:38;6.80;1.00
8664;DHT22;4369;47.842;13.096;2024-02-14T09:26:05;7.00;1.00
8664;DHT22;4369;47.842;13.096;2024-02-14T09:28:32;7.10;1.00
8664;DHT22;4369;47.842;13.096;2024-02-14T09:31:00;7.30;1.00
8664;DHT22;4369;47.842;13.096;2024-02-14T09:33:31;7.50;1.00
8664;DHT22;4369;47.842;13.096;2024-02-14T09:35:58;7.70;1.00
8664;DHT22;4369;47.842;13.096;2024-02-14T09:38:25;7.90;1.00
8664;DHT22;4369;47.842;13.096;2024-02-14T09:40:53;8.10;1.00
8664;DHT22;4369;47.842;13.096;2024-02-14T09:43:26;8.30;48.70
8664;DHT22;4369;47.842;13.096;2024-02-14T09:45:55;8.40;1.00
8664;DHT22;4369;47.842;13.096;2024-02-14T09:48:22;8.60;1.00
8664;DHT22;4369;47.842;13.096;2024-02-14T09:50:52;8.80;1.00
8664;DHT22;4369;47.842;13.096;2024-02-14T09:53:21;9.10;1.00
8664;DHT22;4369;47.842;13.096;2024-02-14T09:55:50;9.40;1.00
8664;DHT22;4369;47.842;13.096;2024-02-14T09:58:18;9.60;1.00
8664;DHT22;4369;47.842;13.096;2024-02-14T10:00:45;9.30;1.00
8664;DHT22;4369;47.842;13.096;2024-02-14T10:03:12;9.10;1.00
8664;DHT22;4369;47.842;13.096;2024-02-14T10:05:41;9.00;1.00
8664;DHT22;4369;47.842;13.096;2024-02-14T10:08:10;8.90;1.00
8664;DHT22;4369;47.842;13.096;2024-02-14T10:10:38;9.00;1.00
8664;DHT22;4369;47.842;13.096;2024-02-14T10:13:05;8.80;1.00
8664;DHT22;4369;47.842;13.096;2024-02-14T10:15:32;8.90;1.00
8664;DHT22;4369;47.842;13.096;2024-02-14T10:17:59;8.90;1.00
8664;DHT22;4369;47.842;13.096;2024-02-14T10:20:26;9.10;1.00
8664;DHT22;4369;47.842;13.096;2024-02-14T10:23:01;8.90;1.00
8664;DHT22;4369;47.842;13.096;2024-02-14T10:25:30;8.60;1.00
8664;DHT22;4369;47.842;13.096;2024-02-14T10:28:03;8.40;1.00
8664;DHT22;4369;47.842;13.096;2024-02-14T10:30:31;8.50;1.00
8664;DHT22;4369;47.842;13.096;2024-02-14T10:32:58;8.60;1.00
8664;DHT22;4369;47.842;13.096;2024-02-14T10:35:28;8.70;1.00
8664;DHT22;4369;47.842;13.096;2024-02-14T10:37:58;8.80;1.00
8664;DHT22;4369;47.842;13.096;2024-02-14T10:40:27;9.10;1.00
8664;DHT22;4369;47.842;13.096;2024-02-14T10:42:56;9.50;1.00
8664;DHT22;4369;47.842;13.096;2024-02-14T10:45:24;10.00;1.00
8664;DHT22;4369;47.842;13.096;2024-02-14T10:47:53;10.40;1.00
8664;DHT22;4369;47.842;13.096;2024-02-14T10:50:21;10.60;1.00
8664;DHT22;4369;47.842;13.096;2024-02-14T10:52:49;10.90;1.00
8664;DHT22;4369;47.842;13.096;2024-02-14T10:55:17;10.90;1.00
8664;DHT22;4369;47.842;13.096;2024-02-14T10:57:45;10.80;1.00
8664;DHT22;4369;47.842;13.096;2024-02-14T11:00:16;10.70;1.00
8664;DHT22;4369;47.842;13.096;2024-02-14T11:02:43;10.70;1.00
8664;DHT22;4369;47.842;13.096;2024-02-14T11:05:13;10.50;1.00
8664;DHT22;4369;47.842;13.096;2024-02-14T11:07:44;10.20;1.00
8664;DHT22;4369;47.842;13.096;2024-02-14T11:10:14;10.00;1.00
8664;DHT22;4369;47.842;13.096;2024-02-14T11:12:42;10.10;1.00
8664;DHT22;4369;47.842;13.096;2024-02-14T11:15:11;10.20;1.00
8664;DHT22;4369;47.842;13.096;2024-02-14T11:17:40;10.20;1.00
8664;DHT22;4369;47.842;13.096;2024-02-14T11:20:16;10.10;1.00
8664;DHT22;4369;47.842;13.096;2024-02-14T11:22:54;10.10;1.00
8664;DHT22;4369;47.842;13.096;2024-02-14T11:25:31;10.30;1.00
8664;DHT22;4369;47.842;13.096;2024-02-14T11:28:00;10.20;1.00
8664;DHT22;4369;47.842;13.096;2024-02-14T11:30:31;10.20;1.00
8664;DHT22;4369;47.842;13.096;2024-02-14T11:33:18;10.20;1.00
8664;DHT22;4369;47.842;13.096;2024-02-14T11:35:46;10.20;1.00
8664;DHT22;4369;47.842;13.096;2024-02-14T11:38:15;10.20;1.00
8664;DHT22;4369;47.842;13.096;2024-02-14T11:40:43;10.10;1.00
8664;DHT22;4369;47.842;13.096;2024-02-14T11:43:11;10.00;1.00
8664;DHT22;4369;47.842;13.096;2024-02-14T11:45:39;9.90;1.00
8664;DHT22;4369;47.842;13.096;2024-02-14T11:48:08;9.70;1.00
8664;DHT22;4369;47.842;13.096;2024-02-14T11:50:39;9.80;1.00
8664;DHT22;4369;47.842;13.096;2024-02-14T11:53:06;9.80;1.00
8664;DHT22;4369;47.842;13.096;2024-02-14T11:55:35;9.90;1.00
8664;DHT22;4369;47.842;13.096;2024-02-14T11:58:03;9.90;1.00
8664;DHT22;4369;47.842;13.096;2024-02-14T12:00:32;10.00;1.00
8664;DHT22;4369;47.842;13.096;2024-02-14T12:03:01;10.00;1.00
8664;DHT22;4369;47.842;13.096;2024-02-14T12:05:30;9.80;1.00
8664;DHT22;4369;47.842;13.096;2024-02-14T12:07:58;9.80;1.00
8664;DHT22;4369;47.842;13.096;2024-02-14T12:10:25;10.00;1.00
8664;DHT22;4369;47.842;13.096;2024-02-14T12:12:52;10.10;1.00
8664;DHT22;4369;47.842;13.096;2024-02-14T12:15:20;10.10;1.00
8664;DHT22;4369;47.842;13.096;2024-02-14T12:17:47;10.10;1.00
8664;DHT22;4369;47.842;13.096;2024-02-14T12:20:15;10.10;1.00
8664;DHT22;4369;47.842;13.096;2024-02-14T12:22:42;10.10;1.00
8664;DHT22;4369;47.842;13.096;2024-02-14T12:25:10;10.10;1.00
8664;DHT22;4369;47.842;13.096;2024-02-14T12:27:37;10.00;1.00
8664;DHT22;4369;47.842;13.096;2024-02-14T12:30:07;10.00;1.00
8664;DHT22;4369;47.842;13.096;2024-02-14T12:32:35;10.20;1.00
8664;DHT22;4369;47.842;13.096;2024-02-14T12:35:02;10.40;1.00
8664;DHT22;4369;47.842;13.096;2024-02-14T12:37:30;10.40;1.00
8664;DHT22;4369;47.842;13.096;2024-02-14T12:39:57;10.30;1.00
8664;DHT22;4369;47.842;13.096;2024-02-14T12:42:26;10.20;1.00
8664;DHT22;4369;47.842;13.096;2024-02-14T12:44:54;10.20;1.00
8664;DHT22;4369;47.842;13.096;2024-02-14T12:47:22;10.30;1.00
8664;DHT22;4369;47.842;13.096;2024-02-14T12:49:51;10.40;1.00
8664;DHT22;4369;47.842;13.096;2024-02-14T12:52:18;10.90;1.00
8664;DHT22;4369;47.842;13.096;2024-02-14T12:54:45;11.40;1.00
8664;DHT22;4369;47.842;13.096;2024-02-14T12:57:13;12.00;1.00
8664;DHT22;4369;47.842;13.096;2024-02-14T12:59:41;12.50;1.00
8664;DHT22;4369;47.842;13.096;2024-02-14T13:02:08;12.80;1.00
8664;DHT22;4369;47.842;13.096;2024-02-14T13:04:36;13.00;1.00
8664;DHT22;4369;47.842;13.096;2024-02-14T13:07:04;13.20;1.00
8664;DHT22;4369;47.842;13.096;2024-02-14T13:09:31;13.30;1.00
8664;DHT22;4369;47.842;13.096;2024-02-14T13:11:58;13.90;1.00
8664;DHT22;4369;47.842;13.096;2024-02-14T13:14:25;14.40;1.00
8664;DHT22;4369;47.842;13.096;2024-02-14T13:16:53;14.50;1.00
8664;DHT22;4369;47.842;13.096;2024-02-14T13:19:20;14.10;1.00
8664;DHT22;4369;47.842;13.096;2024-02-14T13:21:47;13.50;1.00
8664;DHT22;4369;47.842;13.096;2024-02-14T13:24:14;12.80;1.00
8664;DHT22;4369;47.842;13.096;2024-02-14T13:26:41;12.60;1.00
8664;DHT22;4369;47.842;13.096;2024-02-14T13:29:08;12.20;1.00
8664;DHT22;4369;47.842;13.096;2024-02-14T13:31:35;12.00;1.00
8664;DHT22;4369;47.842;13.096;2024-02-14T13:34:03;11.80;1.00
8664;DHT22;4369;47.842;13.096;2024-02-14T13:36:30;11.80;1.00
8664;DHT22;4369;47.842;13.096;2024-02-14T13:38:58;12.00;1.00
8664;DHT22;4369;47.842;13.096;2024-02-14T13:41:26;12.00;1.00
8664;DHT22;4369;47.842;13.096;2024-02-14T13:43:53;11.80;1.00
8664;DHT22;4369;47.842;13.096;2024-02-14T13:46:20;11.60;1.00
8664;DHT22;4369;47.842;13.096;2024-02-14T13:48:47;11.50;1.00
8664;DHT22;4369;47.842;13.096;2024-02-14T13:51:15;11.40;1.00
8664;DHT22;4369;47.842;13.096;2024-02-14T13:53:42;11.20;1.00
8664;DHT22;4369;47.842;13.096;2024-02-14T13:56:10;11.00;1.00
8664;DHT22;4369;47.842;13.096;2024-02-14T13:58:37;11.00;1.00
8664;DHT22;4369;47.842;13.096;2024-02-14T14:01:05;11.00;1.00
8664;DHT22;4369;47.842;13.096;2024-02-14T14:03:32;11.00;1.00
8664;DHT22;4369;47.842;13.096;2024-02-14T14:06:02;11.00;1.00
8664;DHT22;4369;47.842;13.096;2024-02-14T14:08:34;10.90;1.00
8664;DHT22;4369;47.842;13.096;2024-02-14T14:11:02;10.90;1.00
8664;DHT22;4369;47.842;13.096;2024-02-14T14:13:29;10.90;1.00
8664;DHT22;4369;47.842;13.096;2024-02-14T14:15:59;10.90;1.00
8664;DHT22;4369;47.842;13.096;2024-02-14T14:18:26;10.90;1.00
8664;DHT22;4369;47.842;13.096;2024-02-14T14:20:54;10.90;1.00
8664;DHT22;4369;47.842;13.096;2024-02-14T14:23:21;10.80;1.00
8664;DHT22;4369;47.842;13.096;2024-02-14T14:25:49;10.70;1.00
8664;DHT22;4369;47.842;13.096;2024-02-14T14:28:16;10.60;1.00
8664;DHT22;4369;47.842;13.096;2024-02-14T14:30:45;10.70;1.00
8664;DHT22;4369;47.842;13.096;2024-02-14T14:33:13;10.70;1.00
8664;DHT22;4369;47.842;13.096;2024-02-14T14:35:40;10.70;1.00
8664;DHT22;4369;47.842;13.096;2024-02-14T14:38:08;10.70;1.00
8664;DHT22;4369;47.842;13.096;2024-02-14T14:40:35;10.80;1.00
8664;DHT22;4369;47.842;13.096;2024-02-14T14:43:04;10.70;1.00
8664;DHT22;4369;47.842;13.096;2024-02-14T14:45:32;10.70;1.00
8664;DHT22;4369;47.842;13.096;2024-02-14T14:48:00;10.70;1.00
8664;DHT22;4369;47.842;13.096;2024-02-14T14:50:27;10.60;1.00
8664;DHT22;4369;47.842;13.096;2024-02-14T14:52:54;10.60;1.00
8664;DHT22;4369;47.842;13.096;2024-02-14T14:55:21;10.60;1.00
8664;DHT22;4369;47.842;13.096;2024-02-14T14:57:48;10.60;1.00
8664;DHT22;4369;47.842;13.096;2024-02-14T15:00:17;10.60;1.00
8664;DHT22;4369;47.842;13.096;2024-02-14T15:02:44;10.70;1.00
8664;DHT22;4369;47.842;13.096;2024-02-14T15:05:12;10.70;1.00
8664;DHT22;4369;47.842;13.096;2024-02-14T15:07:39;10.70;1.00
8664;DHT22;4369;47.842;13.096;2024-02-14T15:10:07;10.70;1.00
8664;DHT22;4369;47.842;13.096;2024-02-14T15:12:35;10.70;1.00
8664;DHT22;4369;47.842;13.096;2024-02-14T15:15:02;10.70;1.00
8664;DHT22;4369;47.842;13.096;2024-02-14T15:17:31;10.70;1.00
8664;DHT22;4369;47.842;13.096;2024-02-14T15:19:58;10.60;1.00
8664;DHT22;4369;47.842;13.096;2024-02-14T15:22:25;10.70;1.00
8664;DHT22;4369;47.842;13.096;2024-02-14T15:24:54;10.60;1.00
8664;DHT22;4369;47.842;13.096;2024-02-14T15:27:21;10.60;1.00
8664;DHT22;4369;47.842;13.096;2024-02-14T15:29:49;10.60;45.90
8664;DHT22;4369;47.842;13.096;2024-02-14T15:32:35;10.60;99.90
8664;DHT22;4369;47.842;13.096;2024-02-14T15:35:20;10.50;99.90
8664;DHT22;4369;47.842;13.096;2024-02-14T15:37:47;10.50;99.90
8664;DHT22;4369;47.842;13.096;2024-02-14T15:40:14;10.50;1.00
8664;DHT22;4369;47.842;13.096;2024-02-14T15:42:42;10.60;99.90
8664;DHT22;4369;47.842;13.096;2024-02-14T15:45:09;10.60;1.00
8664;DHT22;4369;47.842;13.096;2024-02-14T15:47:42;10.60;1.00
8664;DHT22;4369;47.842;13.096;2024-02-14T15:50:10;10.60;1.00
8664;DHT22;4369;47.842;13.096;2024-02-14T15:52:37;10.60;1.00
8664;DHT22;4369;47.842;13.096;2024-02-14T15:55:05;10.60;1.00
8664;DHT22;4369;47.842;13.096;2024-02-14T15:57:33;10.50;1.00
8664;DHT22;4369;47.842;13.096;2024-02-14T16:00:01;10.40;1.00
8664;DHT22;4369;47.842;13.096;2024-02-14T16:02:31;10.40;1.00
8664;DHT22;4369;47.842;13.096;2024-02-14T16:04:59;10.30;99.90
8664;DHT22;4369;47.842;13.096;2024-02-14T16:07:28;10.30;1.00